Nearby METAR Reports

 

LBSF - Sofia (observato, Bulgaria
Distance from station: ENE 64km
Updated: 20/07/2018 18:30
Few Clouds
Few Clouds
 Wind from WNW
Wind: WNW 26 km/h
Temperature: 25°C
Dew Point: 16°C
Humidity: 57%
Barometer: 1013 hPa
Clouds: Few Clouds
Visibility: 10 km
Cloud details: Few Clouds 1158 m
2018/07/20 15:30 LBSF 201530Z 30014KT 270V330 9999 FEW038 25/16 Q1013 NOSIG
LWSK - Skopje/Petrovac, Macedonia
Distance from station: WSW 99km
Updated: 20/07/2018 18:30
Mostly Cloudy
Mostly Cloudy
 Wind from N
Wind: N 6 km/h
Temperature: 28°C
Heat Index: 28°C
Dew Point: 14°C
Humidity: 42%
Barometer: 1013 hPa
Clouds: Mostly Cloudy
Visibility: 10 km
Cloud details: Few Clouds 1524 m
Mostly Cloudy 2743 m
2018/07/20 15:30 LWSK 201530Z 36003KT 9999 FEW050 BKN090 28/14 Q1013 NOSIG
 
LYNI - Nis, Yugoslavia
Distance from station: NNW 127km
Updated: 20/07/2018 18:30
Few Clouds
Few Clouds
 Wind from NW
Wind: NW 22 km/h
Temperature: 28°C
Heat Index: 28°C
Dew Point: 15°C
Humidity: 45%
Barometer: 1012 hPa
Clouds: Few Clouds
Visibility: 10 km
Cloud details: Few Clouds 1219 m
2018/07/20 15:30 LYNI 201530Z 31012KT 260V010 9999 FEW040 28/15 Q1012 NOSIG
BKPR - Prishtina, Yugoslavia
Distance from station: W 141km
Updated: 20/07/2018 19:00
Partly Cloudy
Partly Cloudy
 Wind from NW
Wind: NW 11 km/h
Temperature: 27°C
Dew Point: 10°C
Humidity: 34%
Barometer: 1014 hPa
Clouds: Partly Cloudy
Visibility: 10 km
Cloud details: Partly Cloudy 1372 m
2018/07/20 16:00 BKPR 201600Z 32006KT 9999 SCT045 27/10 Q1014 NOSIG